Página principal
METAR-TAF:

METAR-TAF

Aeroportos :

Colmenar Viejo, Espanha

latitude: 40-39N, longitude: 003-44W, altura: -999 m

Observação actual do tempo

O boletim foi feito há 5 horas e 8 minutos, às 18:00 UTC
Vento 3 kt de su-sudeste
Temperatura 32°C
Humidade 10%
Pressão 1022 hPa
Visibilidade 10 km ou mais
sem nuvens abaixo de 1500 metros e sem cumulonimbus

METAR: LECV 221800Z 15003KT CAVOK 32/M03 Q1022

Hora: 01:08 (23:08 UTC)

Previsão

O boletim foi feito há 6 horas e 8 minutos, às 17:00 UTC
Previsão válida de 22 às 18 UTC a 23 às 18 UTC
Vento 3 kt com direcção variável
Visibilidade 10 km ou mais
sem nuvens abaixo de 1500 metros e sem cumulonimbus
Tornando-se
de 22 às 20 UTC a 22 às 22 UTC
Vento 10 kt de nordeste
Tornando-se
de 23 às 09 UTC a 23 às 11 UTC
Vento 5 kt de su-sudeste

TAF: LECV 221700Z 2218/2318 VRB03KT CAVOK TX35/2315Z TN23/2304Z BECMG 2220/2222 04010KT BECMG 2309/2311 16005KT

Observações e previsões do tempo de mais de 4000 aeroportos (mensagens METAR e TAF).

As estações disponíveis são os pontos amarelos e vermelhos sobre o mapa.

Mova o rato sobre o mapa para ver o nome da estação.

Depois clique no ponto para visualizar as observações e previsões meteorológicas.

Para alterar o mapa : clique nos botões verdes com uma cruz preta para aumentar o zoom; no botão verde com uma pitada de zoom; ou nas setas verdes para mapas adjacentes.


METAR-TAF: